sensor_id;sensor_type;location;lat;lon;timestamp;temperature;humidity
30300;DHT22;17110;52.602;12.998;2023-02-28T00:01:03;-1.20;99.90
30300;DHT22;17110;52.602;12.998;2023-02-28T00:03:29;-1.20;99.90
30300;DHT22;17110;52.602;12.998;2023-02-28T00:05:54;-1.20;99.90
30300;DHT22;17110;52.602;12.998;2023-02-28T00:08:20;-1.10;99.90
30300;DHT22;17110;52.602;12.998;2023-02-28T00:10:46;-1.20;99.90
30300;DHT22;17110;52.602;12.998;2023-02-28T00:13:12;-1.30;99.90
30300;DHT22;17110;52.602;12.998;2023-02-28T00:15:38;-1.40;99.90
30300;DHT22;17110;52.602;12.998;2023-02-28T00:18:04;-1.40;99.90
30300;DHT22;17110;52.602;12.998;2023-02-28T00:20:30;-1.50;99.90
30300;DHT22;17110;52.602;12.998;2023-02-28T00:22:58;-1.50;99.90
30300;DHT22;17110;52.602;12.998;2023-02-28T00:25:25;-1.50;99.90
30300;DHT22;17110;52.602;12.998;2023-02-28T00:27:51;-1.50;99.90
30300;DHT22;17110;52.602;12.998;2023-02-28T00:30:19;-1.40;99.90
30300;DHT22;17110;52.602;12.998;2023-02-28T00:32:46;-1.40;99.90
30300;DHT22;17110;52.602;12.998;2023-02-28T00:35:12;-1.40;99.90
30300;DHT22;17110;52.602;12.998;2023-02-28T00:37:38;-1.40;99.90
30300;DHT22;17110;52.602;12.998;2023-02-28T00:40:05;-1.60;99.90
30300;DHT22;17110;52.602;12.998;2023-02-28T00:42:32;-1.70;99.90
30300;DHT22;17110;52.602;12.998;2023-02-28T00:44:58;-1.60;99.90
30300;DHT22;17110;52.602;12.998;2023-02-28T00:47:24;-1.70;99.90
30300;DHT22;17110;52.602;12.998;2023-02-28T00:49:49;-1.80;99.90
30300;DHT22;17110;52.602;12.998;2023-02-28T00:52:15;-1.90;99.90
30300;DHT22;17110;52.602;12.998;2023-02-28T00:54:41;-2.10;99.90
30300;DHT22;17110;52.602;12.998;2023-02-28T00:57:06;-2.10;99.90
30300;DHT22;17110;52.602;12.998;2023-02-28T00:59:32;-2.20;99.90
30300;DHT22;17110;52.602;12.998;2023-02-28T01:01:58;-2.20;99.90
30300;DHT22;17110;52.602;12.998;2023-02-28T01:04:24;-2.30;99.90
30300;DHT22;17110;52.602;12.998;2023-02-28T01:06:49;-2.30;99.90
30300;DHT22;17110;52.602;12.998;2023-02-28T01:09:15;-2.40;99.90
30300;DHT22;17110;52.602;12.998;2023-02-28T01:14:17;-2.50;99.90
30300;DHT22;17110;52.602;12.998;2023-02-28T01:16:43;-2.40;99.90
30300;DHT22;17110;52.602;12.998;2023-02-28T01:19:10;-2.60;99.90
30300;DHT22;17110;52.602;12.998;2023-02-28T01:21:36;-2.70;99.90
30300;DHT22;17110;52.602;12.998;2023-02-28T01:24:03;-2.70;99.90
30300;DHT22;17110;52.602;12.998;2023-02-28T01:26:29;-2.70;99.90
30300;DHT22;17110;52.602;12.998;2023-02-28T01:28:55;-2.80;99.90
30300;DHT22;17110;52.602;12.998;2023-02-28T01:31:22;-3.00;99.90
30300;DHT22;17110;52.602;12.998;2023-02-28T01:33:48;-2.90;99.90
30300;DHT22;17110;52.602;12.998;2023-02-28T01:36:19;-2.80;99.90
30300;DHT22;17110;52.602;12.998;2023-02-28T01:38:45;-2.90;99.90
30300;DHT22;17110;52.602;12.998;2023-02-28T01:46:14;-3.20;99.90
30300;DHT22;17110;52.602;12.998;2023-02-28T01:49:02;-3.00;99.90
30300;DHT22;17110;52.602;12.998;2023-02-28T01:51:35;-3.00;99.90
30300;DHT22;17110;52.602;12.998;2023-02-28T01:54:07;-3.10;99.90
30300;DHT22;17110;52.602;12.998;2023-02-28T01:56:45;-3.10;99.90
30300;DHT22;17110;52.602;12.998;2023-02-28T01:59:14;-3.30;99.90
30300;DHT22;17110;52.602;12.998;2023-02-28T02:01:43;-3.30;99.90
30300;DHT22;17110;52.602;12.998;2023-02-28T02:04:08;-3.40;99.90
30300;DHT22;17110;52.602;12.998;2023-02-28T02:06:38;-3.40;99.90
30300;DHT22;17110;52.602;12.998;2023-02-28T02:09:05;-3.50;99.90
30300;DHT22;17110;52.602;12.998;2023-02-28T02:11:32;-3.60;99.90
30300;DHT22;17110;52.602;12.998;2023-02-28T02:16:50;-3.50;99.90
30300;DHT22;17110;52.602;12.998;2023-02-28T02:19:28;-3.50;99.90
30300;DHT22;17110;52.602;12.998;2023-02-28T02:22:03;-3.50;99.90
30300;DHT22;17110;52.602;12.998;2023-02-28T02:35:31;-3.80;99.90
30300;DHT22;17110;52.602;12.998;2023-02-28T02:40:36;-3.70;99.90
30300;DHT22;17110;52.602;12.998;2023-02-28T02:43:16;-3.70;99.90
30300;DHT22;17110;52.602;12.998;2023-02-28T02:45:56;-3.60;99.90
30300;DHT22;17110;52.602;12.998;2023-02-28T02:48:30;-3.70;99.90
30300;DHT22;17110;52.602;12.998;2023-02-28T02:51:07;-3.70;99.90
30300;DHT22;17110;52.602;12.998;2023-02-28T02:53:49;-3.80;99.90
30300;DHT22;17110;52.602;12.998;2023-02-28T02:56:18;-3.70;99.90
30300;DHT22;17110;52.602;12.998;2023-02-28T02:58:48;-3.70;99.90
30300;DHT22;17110;52.602;12.998;2023-02-28T03:01:25;-3.70;99.90
30300;DHT22;17110;52.602;12.998;2023-02-28T03:04:01;-3.70;99.90
30300;DHT22;17110;52.602;12.998;2023-02-28T03:06:27;-3.90;99.90
30300;DHT22;17110;52.602;12.998;2023-02-28T03:08:53;-3.90;99.90
30300;DHT22;17110;52.602;12.998;2023-02-28T03:11:19;-3.80;99.90
30300;DHT22;17110;52.602;12.998;2023-02-28T03:13:54;-4.00;99.90
30300;DHT22;17110;52.602;12.998;2023-02-28T03:17:00;-4.20;99.90
30300;DHT22;17110;52.602;12.998;2023-02-28T03:33:24;-4.40;99.90
30300;DHT22;17110;52.602;12.998;2023-02-28T03:36:16;-4.40;99.90
30300;DHT22;17110;52.602;12.998;2023-02-28T03:41:49;-4.20;99.90
30300;DHT22;17110;52.602;12.998;2023-02-28T03:44:32;-4.40;99.90
30300;DHT22;17110;52.602;12.998;2023-02-28T03:47:02;-4.40;99.90
30300;DHT22;17110;52.602;12.998;2023-02-28T03:49:35;-4.50;99.90
30300;DHT22;17110;52.602;12.998;2023-02-28T03:52:05;-4.40;99.90
30300;DHT22;17110;52.602;12.998;2023-02-28T03:54:35;-4.30;99.90
30300;DHT22;17110;52.602;12.998;2023-02-28T03:57:23;-4.30;99.90
30300;DHT22;17110;52.602;12.998;2023-02-28T04:00:02;-4.30;99.90
30300;DHT22;17110;52.602;12.998;2023-02-28T04:02:31;-4.60;99.90
30300;DHT22;17110;52.602;12.998;2023-02-28T04:04:57;-4.60;99.90
30300;DHT22;17110;52.602;12.998;2023-02-28T04:07:23;-4.50;99.90
30300;DHT22;17110;52.602;12.998;2023-02-28T04:09:49;-4.60;99.90
30300;DHT22;17110;52.602;12.998;2023-02-28T04:12:15;-4.70;99.90
30300;DHT22;17110;52.602;12.998;2023-02-28T04:14:40;-4.60;99.90
30300;DHT22;17110;52.602;12.998;2023-02-28T04:17:06;-4.60;99.90
30300;DHT22;17110;52.602;12.998;2023-02-28T04:19:32;-4.60;99.90
30300;DHT22;17110;52.602;12.998;2023-02-28T04:21:57;-4.50;99.90
30300;DHT22;17110;52.602;12.998;2023-02-28T04:24:25;-4.70;99.90
30300;DHT22;17110;52.602;12.998;2023-02-28T04:26:53;-4.70;99.90
30300;DHT22;17110;52.602;12.998;2023-02-28T04:29:25;-4.70;99.90
30300;DHT22;17110;52.602;12.998;2023-02-28T04:31:52;-4.80;99.90
30300;DHT22;17110;52.602;12.998;2023-02-28T04:34:19;-4.80;99.90
30300;DHT22;17110;52.602;12.998;2023-02-28T04:36:45;-4.80;99.90
30300;DHT22;17110;52.602;12.998;2023-02-28T04:39:20;-4.90;99.90
30300;DHT22;17110;52.602;12.998;2023-02-28T04:41:46;-4.80;99.90
30300;DHT22;17110;52.602;12.998;2023-02-28T04:44:12;-4.80;99.90
30300;DHT22;17110;52.602;12.998;2023-02-28T04:46:38;-4.80;99.90
30300;DHT22;17110;52.602;12.998;2023-02-28T04:49:04;-4.70;99.90
30300;DHT22;17110;52.602;12.998;2023-02-28T04:51:29;-4.90;99.90
30300;DHT22;17110;52.602;12.998;2023-02-28T04:53:55;-4.90;99.90
30300;DHT22;17110;52.602;12.998;2023-02-28T04:56:21;-5.00;99.90
30300;DHT22;17110;52.602;12.998;2023-02-28T04:58:47;-5.00;99.90
30300;DHT22;17110;52.602;12.998;2023-02-28T05:01:24;-5.10;99.90
30300;DHT22;17110;52.602;12.998;2023-02-28T05:03:51;-5.00;99.90
30300;DHT22;17110;52.602;12.998;2023-02-28T05:06:17;-5.00;99.90
30300;DHT22;17110;52.602;12.998;2023-02-28T05:08:43;-5.00;99.90
30300;DHT22;17110;52.602;12.998;2023-02-28T05:11:24;-5.00;99.90
30300;DHT22;17110;52.602;12.998;2023-02-28T05:13:52;-5.10;99.90
30300;DHT22;17110;52.602;12.998;2023-02-28T05:16:18;-5.10;99.90
30300;DHT22;17110;52.602;12.998;2023-02-28T05:18:44;-5.10;99.90
30300;DHT22;17110;52.602;12.998;2023-02-28T05:21:29;-5.20;99.90
30300;DHT22;17110;52.602;12.998;2023-02-28T05:23:57;-5.20;99.90
30300;DHT22;17110;52.602;12.998;2023-02-28T05:26:23;-5.00;99.90
30300;DHT22;17110;52.602;12.998;2023-02-28T05:28:49;-5.10;99.90
30300;DHT22;17110;52.602;12.998;2023-02-28T05:31:14;-5.00;99.90
30300;DHT22;17110;52.602;12.998;2023-02-28T05:33:40;-5.00;99.90
30300;DHT22;17110;52.602;12.998;2023-02-28T05:36:06;-4.90;99.90
30300;DHT22;17110;52.602;12.998;2023-02-28T05:38:32;-5.00;99.90
30300;DHT22;17110;52.602;12.998;2023-02-28T05:40:58;-5.00;99.90
30300;DHT22;17110;52.602;12.998;2023-02-28T05:43:24;-5.20;99.90
30300;DHT22;17110;52.602;12.998;2023-02-28T05:45:49;-5.30;99.90
30300;DHT22;17110;52.602;12.998;2023-02-28T05:48:15;-5.20;99.90
30300;DHT22;17110;52.602;12.998;2023-02-28T05:50:42;-5.20;99.90
30300;DHT22;17110;52.602;12.998;2023-02-28T05:53:10;-5.20;99.90
30300;DHT22;17110;52.602;12.998;2023-02-28T05:55:44;-5.30;99.90
30300;DHT22;17110;52.602;12.998;2023-02-28T05:58:10;-5.30;99.90
30300;DHT22;17110;52.602;12.998;2023-02-28T06:00:35;-5.30;99.90
30300;DHT22;17110;52.602;12.998;2023-02-28T06:03:01;-5.40;99.90
30300;DHT22;17110;52.602;12.998;2023-02-28T06:05:27;-5.20;99.90
30300;DHT22;17110;52.602;12.998;2023-02-28T06:07:53;-5.20;99.90
30300;DHT22;17110;52.602;12.998;2023-02-28T06:10:19;-5.10;99.90
30300;DHT22;17110;52.602;12.998;2023-02-28T06:12:45;-5.20;99.90
30300;DHT22;17110;52.602;12.998;2023-02-28T06:15:14;-5.00;99.90
30300;DHT22;17110;52.602;12.998;2023-02-28T06:17:41;-5.00;99.90
30300;DHT22;17110;52.602;12.998;2023-02-28T06:20:08;-4.90;99.90
30300;DHT22;17110;52.602;12.998;2023-02-28T06:22:37;-5.00;99.90
30300;DHT22;17110;52.602;12.998;2023-02-28T06:25:04;-5.00;99.90
30300;DHT22;17110;52.602;12.998;2023-02-28T06:27:31;-5.00;99.90
30300;DHT22;17110;52.602;12.998;2023-02-28T06:29:57;-5.00;99.90
30300;DHT22;17110;52.602;12.998;2023-02-28T06:32:23;-5.00;99.90
30300;DHT22;17110;52.602;12.998;2023-02-28T06:34:48;-4.90;99.90
30300;DHT22;17110;52.602;12.998;2023-02-28T06:37:16;-4.80;99.90
30300;DHT22;17110;52.602;12.998;2023-02-28T06:39:41;-4.70;99.90
30300;DHT22;17110;52.602;12.998;2023-02-28T06:42:07;-4.70;99.90
30300;DHT22;17110;52.602;12.998;2023-02-28T06:44:33;-4.70;99.90
30300;DHT22;17110;52.602;12.998;2023-02-28T06:47:01;-4.70;99.90
30300;DHT22;17110;52.602;12.998;2023-02-28T06:49:32;-4.70;99.90
30300;DHT22;17110;52.602;12.998;2023-02-28T06:51:58;-4.60;99.90
30300;DHT22;17110;52.602;12.998;2023-02-28T06:54:24;-4.30;99.90
30300;DHT22;17110;52.602;12.998;2023-02-28T06:56:50;-4.30;99.90
30300;DHT22;17110;52.602;12.998;2023-02-28T06:59:16;-4.20;99.90
30300;DHT22;17110;52.602;12.998;2023-02-28T07:01:42;-3.80;99.90
30300;DHT22;17110;52.602;12.998;2023-02-28T07:04:08;-3.80;99.90
30300;DHT22;17110;52.602;12.998;2023-02-28T07:06:33;-3.70;99.90
30300;DHT22;17110;52.602;12.998;2023-02-28T07:08:59;-3.60;99.90
30300;DHT22;17110;52.602;12.998;2023-02-28T07:11:27;-3.30;99.90
30300;DHT22;17110;52.602;12.998;2023-02-28T07:13:56;-3.10;99.90
30300;DHT22;17110;52.602;12.998;2023-02-28T07:16:23;-3.20;99.90
30300;DHT22;17110;52.602;12.998;2023-02-28T07:18:51;-2.80;99.90
30300;DHT22;17110;52.602;12.998;2023-02-28T07:21:17;-2.60;99.90
30300;DHT22;17110;52.602;12.998;2023-02-28T07:23:43;-2.30;99.90
30300;DHT22;17110;52.602;12.998;2023-02-28T07:26:12;-2.20;99.90
30300;DHT22;17110;52.602;12.998;2023-02-28T07:28:40;-2.20;99.90
30300;DHT22;17110;52.602;12.998;2023-02-28T07:31:08;-2.00;99.90
30300;DHT22;17110;52.602;12.998;2023-02-28T07:33:35;-1.70;99.90
30300;DHT22;17110;52.602;12.998;2023-02-28T07:36:06;-1.50;99.90
30300;DHT22;17110;52.602;12.998;2023-02-28T07:38:36;-1.40;99.90
30300;DHT22;17110;52.602;12.998;2023-02-28T07:41:03;-1.10;99.90
30300;DHT22;17110;52.602;12.998;2023-02-28T07:43:32;-0.90;99.90
30300;DHT22;17110;52.602;12.998;2023-02-28T07:46:07;-0.60;99.90
30300;DHT22;17110;52.602;12.998;2023-02-28T07:48:34;-0.30;99.90
30300;DHT22;17110;52.602;12.998;2023-02-28T07:51:00;-0.10;99.90
30300;DHT22;17110;52.602;12.998;2023-02-28T07:53:27;0.30;99.90
30300;DHT22;17110;52.602;12.998;2023-02-28T07:55:57;0.90;99.90
30300;DHT22;17110;52.602;12.998;2023-02-28T07:58:23;1.80;99.90
30300;DHT22;17110;52.602;12.998;2023-02-28T08:01:15;2.70;99.90
30300;DHT22;17110;52.602;12.998;2023-02-28T08:04:04;3.60;99.90
30300;DHT22;17110;52.602;12.998;2023-02-28T08:06:35;4.80;99.90
30300;DHT22;17110;52.602;12.998;2023-02-28T08:09:03;5.80;99.90
30300;DHT22;17110;52.602;12.998;2023-02-28T08:11:31;6.20;99.90
30300;DHT22;17110;52.602;12.998;2023-02-28T08:14:02;5.90;99.90
30300;DHT22;17110;52.602;12.998;2023-02-28T08:16:30;6.50;99.90
30300;DHT22;17110;52.602;12.998;2023-02-28T08:33:27;6.20;99.90
30300;DHT22;17110;52.602;12.998;2023-02-28T08:39:23;5.80;99.90
30300;DHT22;17110;52.602;12.998;2023-02-28T08:42:28;5.70;99.90
30300;DHT22;17110;52.602;12.998;2023-02-28T08:49:14;6.20;99.90
30300;DHT22;17110;52.602;12.998;2023-02-28T08:52:24;6.70;99.90
30300;DHT22;17110;52.602;12.998;2023-02-28T09:08:52;7.00;99.90
30300;DHT22;17110;52.602;12.998;2023-02-28T09:15:15;6.90;99.90
30300;DHT22;17110;52.602;12.998;2023-02-28T09:18:16;7.50;99.90
30300;DHT22;17110;52.602;12.998;2023-02-28T09:21:12;9.00;99.90
30300;DHT22;17110;52.602;12.998;2023-02-28T09:24:10;9.20;99.90
30300;DHT22;17110;52.602;12.998;2023-02-28T09:27:12;8.50;99.90
30300;DHT22;17110;52.602;12.998;2023-02-28T09:29:38;9.10;99.90
30300;DHT22;17110;52.602;12.998;2023-02-28T09:32:18;9.60;98.60
30300;DHT22;17110;52.602;12.998;2023-02-28T09:34:55;11.30;97.00
30300;DHT22;17110;52.602;12.998;2023-02-28T09:37:20;11.60;97.50
30300;DHT22;17110;52.602;12.998;2023-02-28T09:39:49;12.10;95.40
30300;DHT22;17110;52.602;12.998;2023-02-28T09:42:34;11.80;95.80
30300;DHT22;17110;52.602;12.998;2023-02-28T09:51:55;12.60;95.20
30300;DHT22;17110;52.602;12.998;2023-02-28T09:54:27;13.10;92.00
30300;DHT22;17110;52.602;12.998;2023-02-28T09:57:07;10.90;92.70
30300;DHT22;17110;52.602;12.998;2023-02-28T09:59:42;9.90;95.80
30300;DHT22;17110;52.602;12.998;2023-02-28T10:08:17;9.10;96.10
30300;DHT22;17110;52.602;12.998;2023-02-28T10:11:15;9.30;95.60
30300;DHT22;17110;52.602;12.998;2023-02-28T10:17:21;9.40;95.90
30300;DHT22;17110;52.602;12.998;2023-02-28T10:22:49;9.50;95.00
30300;DHT22;17110;52.602;12.998;2023-02-28T10:25:21;9.70;95.80
30300;DHT22;17110;52.602;12.998;2023-02-28T10:27:54;9.60;95.30
30300;DHT22;17110;52.602;12.998;2023-02-28T10:30:27;8.80;97.00
30300;DHT22;17110;52.602;12.998;2023-02-28T10:32:53;9.10;97.10
30300;DHT22;17110;52.602;12.998;2023-02-28T10:35:24;9.10;96.60
30300;DHT22;17110;52.602;12.998;2023-02-28T10:37:59;9.00;96.90
30300;DHT22;17110;52.602;12.998;2023-02-28T10:40:46;9.80;95.60
30300;DHT22;17110;52.602;12.998;2023-02-28T10:43:21;10.20;94.70
30300;DHT22;17110;52.602;12.998;2023-02-28T10:46:42;9.50;95.40
30300;DHT22;17110;52.602;12.998;2023-02-28T10:56:24;9.20;95.70
30300;DHT22;17110;52.602;12.998;2023-02-28T10:58:57;8.90;94.60
30300;DHT22;17110;52.602;12.998;2023-02-28T11:04:59;8.80;95.90
30300;DHT22;17110;52.602;12.998;2023-02-28T11:07:38;10.20;95.00
30300;DHT22;17110;52.602;12.998;2023-02-28T11:13:57;10.30;93.30
30300;DHT22;17110;52.602;12.998;2023-02-28T11:23:00;9.40;94.80
30300;DHT22;17110;52.602;12.998;2023-02-28T11:52:50;5.80;98.90
30300;DHT22;17110;52.602;12.998;2023-02-28T11:59:04;5.70;99.50
30300;DHT22;17110;52.602;12.998;2023-02-28T12:08:04;5.90;99.00
30300;DHT22;17110;52.602;12.998;2023-02-28T12:20:05;5.90;98.30
30300;DHT22;17110;52.602;12.998;2023-02-28T12:22:47;6.00;97.70
30300;DHT22;17110;52.602;12.998;2023-02-28T12:27:58;6.00;99.20
30300;DHT22;17110;52.602;12.998;2023-02-28T12:34:31;6.30;97.80
30300;DHT22;17110;52.602;12.998;2023-02-28T12:37:17;6.50;99.50
30300;DHT22;17110;52.602;12.998;2023-02-28T12:39:50;5.80;97.70
30300;DHT22;17110;52.602;12.998;2023-02-28T12:42:30;5.90;99.20
30300;DHT22;17110;52.602;12.998;2023-02-28T12:45:18;5.80;98.40
30300;DHT22;17110;52.602;12.998;2023-02-28T12:48:18;5.80;98.80
30300;DHT22;17110;52.602;12.998;2023-02-28T12:50:48;5.80;99.90
30300;DHT22;17110;52.602;12.998;2023-02-28T13:07:31;6.10;97.90
30300;DHT22;17110;52.602;12.998;2023-02-28T13:10:03;6.00;98.00
30300;DHT22;17110;52.602;12.998;2023-02-28T13:12:29;6.00;97.70
30300;DHT22;17110;52.602;12.998;2023-02-28T13:15:23;5.80;97.90
30300;DHT22;17110;52.602;12.998;2023-02-28T13:18:00;5.80;99.00
30300;DHT22;17110;52.602;12.998;2023-02-28T13:20:33;5.80;98.00
30300;DHT22;17110;52.602;12.998;2023-02-28T13:22:59;5.70;97.70
30300;DHT22;17110;52.602;12.998;2023-02-28T13:28:11;5.70;99.00
30300;DHT22;17110;52.602;12.998;2023-02-28T13:36:26;6.00;98.50
30300;DHT22;17110;52.602;12.998;2023-02-28T13:39:03;6.00;98.30
30300;DHT22;17110;52.602;12.998;2023-02-28T13:41:48;6.10;98.20
30300;DHT22;17110;52.602;12.998;2023-02-28T13:49:29;5.90;99.30
30300;DHT22;17110;52.602;12.998;2023-02-28T13:54:51;6.00;98.80
30300;DHT22;17110;52.602;12.998;2023-02-28T13:57:47;6.20;98.40
30300;DHT22;17110;52.602;12.998;2023-02-28T14:00:35;6.20;98.20
30300;DHT22;17110;52.602;12.998;2023-02-28T14:09:19;6.10;97.70
30300;DHT22;17110;52.602;12.998;2023-02-28T14:11:46;6.10;98.00
30300;DHT22;17110;52.602;12.998;2023-02-28T14:17:05;6.10;99.20
30300;DHT22;17110;52.602;12.998;2023-02-28T14:19:32;5.90;99.00
30300;DHT22;17110;52.602;12.998;2023-02-28T14:27:28;5.80;98.50
30300;DHT22;17110;52.602;12.998;2023-02-28T14:33:22;5.80;98.60
30300;DHT22;17110;52.602;12.998;2023-02-28T14:36:25;5.90;98.60
30300;DHT22;17110;52.602;12.998;2023-02-28T14:38:54;6.00;98.10
30300;DHT22;17110;52.602;12.998;2023-02-28T14:41:28;5.90;98.50
30300;DHT22;17110;52.602;12.998;2023-02-28T14:43:57;5.80;98.90
30300;DHT22;17110;52.602;12.998;2023-02-28T14:46:26;6.00;97.90
30300;DHT22;17110;52.602;12.998;2023-02-28T14:48:54;6.00;98.70
30300;DHT22;17110;52.602;12.998;2023-02-28T14:51:21;5.80;97.90
30300;DHT22;17110;52.602;12.998;2023-02-28T14:53:52;5.80;98.00
30300;DHT22;17110;52.602;12.998;2023-02-28T14:56:24;5.80;97.70
30300;DHT22;17110;52.602;12.998;2023-02-28T14:58:53;6.00;98.20
30300;DHT22;17110;52.602;12.998;2023-02-28T15:01:21;6.00;99.40
30300;DHT22;17110;52.602;12.998;2023-02-28T15:03:48;5.80;98.80
30300;DHT22;17110;52.602;12.998;2023-02-28T15:06:22;5.90;98.40
30300;DHT22;17110;52.602;12.998;2023-02-28T15:09:10;5.70;99.90
30300;DHT22;17110;52.602;12.998;2023-02-28T15:11:37;5.50;99.90
30300;DHT22;17110;52.602;12.998;2023-02-28T15:14:04;5.50;99.90
30300;DHT22;17110;52.602;12.998;2023-02-28T15:16:39;5.50;99.90
30300;DHT22;17110;52.602;12.998;2023-02-28T15:19:24;5.50;99.90
30300;DHT22;17110;52.602;12.998;2023-02-28T15:22:01;5.40;99.90
30300;DHT22;17110;52.602;12.998;2023-02-28T15:24:44;5.50;99.50
30300;DHT22;17110;52.602;12.998;2023-02-28T15:27:18;5.40;99.90
30300;DHT22;17110;52.602;12.998;2023-02-28T15:29:49;5.30;99.90
30300;DHT22;17110;52.602;12.998;2023-02-28T15:34:56;5.30;99.70
30300;DHT22;17110;52.602;12.998;2023-02-28T15:40:23;5.40;99.90
30300;DHT22;17110;52.602;12.998;2023-02-28T15:43:11;5.40;99.90
30300;DHT22;17110;52.602;12.998;2023-02-28T15:46:00;5.40;99.90
30300;DHT22;17110;52.602;12.998;2023-02-28T15:48:34;5.40;99.70
30300;DHT22;17110;52.602;12.998;2023-02-28T15:51:02;5.30;99.90
30300;DHT22;17110;52.602;12.998;2023-02-28T15:53:47;5.20;99.90
30300;DHT22;17110;52.602;12.998;2023-02-28T15:56:35;5.10;99.90
30300;DHT22;17110;52.602;12.998;2023-02-28T15:59:06;5.10;99.90
30300;DHT22;17110;52.602;12.998;2023-02-28T16:01:34;5.00;99.90
30300;DHT22;17110;52.602;12.998;2023-02-28T16:04:14;5.00;99.90
30300;DHT22;17110;52.602;12.998;2023-02-28T16:06:45;5.00;99.90
30300;DHT22;17110;52.602;12.998;2023-02-28T16:09:13;4.80;99.90
30300;DHT22;17110;52.602;12.998;2023-02-28T16:11:45;4.60;99.90
30300;DHT22;17110;52.602;12.998;2023-02-28T16:14:20;4.40;99.90
30300;DHT22;17110;52.602;12.998;2023-02-28T16:16:51;4.30;99.90
30300;DHT22;17110;52.602;12.998;2023-02-28T16:19:18;4.20;99.90
30300;DHT22;17110;52.602;12.998;2023-02-28T16:21:44;4.20;99.90
30300;DHT22;17110;52.602;12.998;2023-02-28T16:24:10;4.30;99.90
30300;DHT22;17110;52.602;12.998;2023-02-28T16:26:36;4.10;99.90
30300;DHT22;17110;52.602;12.998;2023-02-28T16:29:05;4.10;99.90
30300;DHT22;17110;52.602;12.998;2023-02-28T16:31:34;4.10;99.90
30300;DHT22;17110;52.602;12.998;2023-02-28T16:34:00;4.00;99.90
30300;DHT22;17110;52.602;12.998;2023-02-28T16:36:27;3.90;99.90
30300;DHT22;17110;52.602;12.998;2023-02-28T16:38:54;3.70;99.90
30300;DHT22;17110;52.602;12.998;2023-02-28T16:41:22;3.60;99.90
30300;DHT22;17110;52.602;12.998;2023-02-28T16:43:52;3.50;99.90
30300;DHT22;17110;52.602;12.998;2023-02-28T16:46:19;3.40;99.90
30300;DHT22;17110;52.602;12.998;2023-02-28T16:48:46;3.20;99.90
30300;DHT22;17110;52.602;12.998;2023-02-28T16:51:15;3.10;99.90
30300;DHT22;17110;52.602;12.998;2023-02-28T16:53:43;2.80;99.90
30300;DHT22;17110;52.602;12.998;2023-02-28T16:56:16;2.60;99.90
30300;DHT22;17110;52.602;12.998;2023-02-28T16:58:43;2.30;99.90
30300;DHT22;17110;52.602;12.998;2023-02-28T17:01:13;2.00;99.90
30300;DHT22;17110;52.602;12.998;2023-02-28T17:03:39;1.90;99.90
30300;DHT22;17110;52.602;12.998;2023-02-28T17:06:10;1.80;99.90
30300;DHT22;17110;52.602;12.998;2023-02-28T17:08:39;1.70;99.90
30300;DHT22;17110;52.602;12.998;2023-02-28T17:11:05;1.70;99.90
30300;DHT22;17110;52.602;12.998;2023-02-28T17:13:31;1.70;99.90
30300;DHT22;17110;52.602;12.998;2023-02-28T17:15:58;1.60;99.90
30300;DHT22;17110;52.602;12.998;2023-02-28T17:18:23;1.50;99.90
30300;DHT22;17110;52.602;12.998;2023-02-28T17:20:49;1.50;99.90
30300;DHT22;17110;52.602;12.998;2023-02-28T17:23:15;1.40;99.90
30300;DHT22;17110;52.602;12.998;2023-02-28T17:25:41;1.20;99.90
30300;DHT22;17110;52.602;12.998;2023-02-28T17:28:19;1.00;99.90
30300;DHT22;17110;52.602;12.998;2023-02-28T17:30:44;0.80;99.90
30300;DHT22;17110;52.602;12.998;2023-02-28T17:33:15;0.70;99.90
30300;DHT22;17110;52.602;12.998;2023-02-28T17:35:41;0.50;99.90
30300;DHT22;17110;52.602;12.998;2023-02-28T17:38:18;0.60;99.90
30300;DHT22;17110;52.602;12.998;2023-02-28T17:40:44;0.50;99.90
30300;DHT22;17110;52.602;12.998;2023-02-28T17:43:10;0.30;99.90
30300;DHT22;17110;52.602;12.998;2023-02-28T17:45:36;0.20;99.90
30300;DHT22;17110;52.602;12.998;2023-02-28T17:48:08;0.10;99.90
30300;DHT22;17110;52.602;12.998;2023-02-28T17:50:36;0.00;99.90
30300;DHT22;17110;52.602;12.998;2023-02-28T17:53:02;-0.10;99.90
30300;DHT22;17110;52.602;12.998;2023-02-28T17:55:32;0.10;99.90
30300;DHT22;17110;52.602;12.998;2023-02-28T17:58:02;-0.10;99.90
30300;DHT22;17110;52.602;12.998;2023-02-28T18:00:32;-0.20;99.90
30300;DHT22;17110;52.602;12.998;2023-02-28T18:03:06;-0.30;99.90
30300;DHT22;17110;52.602;12.998;2023-02-28T18:05:35;-0.50;99.90
30300;DHT22;17110;52.602;12.998;2023-02-28T18:08:11;-0.50;99.90
30300;DHT22;17110;52.602;12.998;2023-02-28T18:10:37;-0.40;99.90
30300;DHT22;17110;52.602;12.998;2023-02-28T18:13:03;-0.40;99.90
30300;DHT22;17110;52.602;12.998;2023-02-28T18:15:29;-0.70;99.90
30300;DHT22;17110;52.602;12.998;2023-02-28T18:17:55;-0.80;99.90
30300;DHT22;17110;52.602;12.998;2023-02-28T18:20:20;-0.90;99.90
30300;DHT22;17110;52.602;12.998;2023-02-28T18:22:46;-0.80;99.90
30300;DHT22;17110;52.602;12.998;2023-02-28T18:25:19;-0.80;99.90
30300;DHT22;17110;52.602;12.998;2023-02-28T18:27:59;-1.00;99.90
30300;DHT22;17110;52.602;12.998;2023-02-28T18:30:38;-1.10;99.90
30300;DHT22;17110;52.602;12.998;2023-02-28T18:33:11;-1.10;99.90
30300;DHT22;17110;52.602;12.998;2023-02-28T18:35:39;-1.20;99.90
30300;DHT22;17110;52.602;12.998;2023-02-28T18:38:13;-1.20;99.90
30300;DHT22;17110;52.602;12.998;2023-02-28T18:40:40;-1.20;99.90
30300;DHT22;17110;52.602;12.998;2023-02-28T18:43:06;-1.20;99.90
30300;DHT22;17110;52.602;12.998;2023-02-28T18:45:52;-1.20;99.90
30300;DHT22;17110;52.602;12.998;2023-02-28T18:48:42;-1.30;99.90
30300;DHT22;17110;52.602;12.998;2023-02-28T18:51:14;-1.20;99.90
30300;DHT22;17110;52.602;12.998;2023-02-28T18:53:42;-1.20;99.90
30300;DHT22;17110;52.602;12.998;2023-02-28T18:56:11;-1.20;99.90
30300;DHT22;17110;52.602;12.998;2023-02-28T18:58:38;-1.20;99.90
30300;DHT22;17110;52.602;12.998;2023-02-28T19:01:14;-1.40;99.90
30300;DHT22;17110;52.602;12.998;2023-02-28T19:03:40;-1.50;99.90
30300;DHT22;17110;52.602;12.998;2023-02-28T19:06:06;-1.40;99.90
30300;DHT22;17110;52.602;12.998;2023-02-28T19:08:33;-1.40;99.90
30300;DHT22;17110;52.602;12.998;2023-02-28T19:10:59;-1.40;99.90
30300;DHT22;17110;52.602;12.998;2023-02-28T19:13:24;-1.40;99.90
30300;DHT22;17110;52.602;12.998;2023-02-28T19:15:59;-1.40;99.90
30300;DHT22;17110;52.602;12.998;2023-02-28T19:18:25;-1.30;99.90
30300;DHT22;17110;52.602;12.998;2023-02-28T19:20:57;-1.40;99.90
30300;DHT22;17110;52.602;12.998;2023-02-28T19:23:24;-1.40;99.90
30300;DHT22;17110;52.602;12.998;2023-02-28T19:25:50;-1.50;99.90
30300;DHT22;17110;52.602;12.998;2023-02-28T19:28:16;-1.50;99.90
30300;DHT22;17110;52.602;12.998;2023-02-28T19:30:46;-1.60;99.90
30300;DHT22;17110;52.602;12.998;2023-02-28T19:33:14;-1.70;99.90
30300;DHT22;17110;52.602;12.998;2023-02-28T19:35:40;-1.70;99.90